sensor_id;sensor_type;location;lat;lon;timestamp;P1;durP1;ratioP1;P2;durP2;ratioP2
1024;SDS011;501;48.214;11.350;2023-03-18T00:01:35;9.83;;;7.70;;
1024;SDS011;501;48.214;11.350;2023-03-18T00:04:01;12.97;;;8.67;;
1024;SDS011;501;48.214;11.350;2023-03-18T00:06:28;9.27;;;8.23;;
1024;SDS011;501;48.214;11.350;2023-03-18T00:08:54;21.00;;;9.43;;
1024;SDS011;501;48.214;11.350;2023-03-18T00:11:21;13.10;;;9.20;;
1024;SDS011;501;48.214;11.350;2023-03-18T00:13:47;11.70;;;8.53;;
1024;SDS011;501;48.214;11.350;2023-03-18T00:16:13;12.27;;;9.87;;
1024;SDS011;501;48.214;11.350;2023-03-18T00:18:39;10.30;;;8.50;;
1024;SDS011;501;48.214;11.350;2023-03-18T00:21:06;13.37;;;9.93;;
1024;SDS011;501;48.214;11.350;2023-03-18T00:23:32;12.47;;;9.23;;
1024;SDS011;501;48.214;11.350;2023-03-18T00:25:58;14.00;;;9.87;;
1024;SDS011;501;48.214;11.350;2023-03-18T00:28:25;11.27;;;9.83;;
1024;SDS011;501;48.214;11.350;2023-03-18T00:30:52;14.33;;;10.27;;
1024;SDS011;501;48.214;11.350;2023-03-18T00:33:18;11.27;;;9.70;;
1024;SDS011;501;48.214;11.350;2023-03-18T00:35:45;11.63;;;9.20;;
1024;SDS011;501;48.214;11.350;2023-03-18T00:38:11;14.57;;;10.10;;
1024;SDS011;501;48.214;11.350;2023-03-18T00:40:45;15.47;;;9.93;;
1024;SDS011;501;48.214;11.350;2023-03-18T00:43:18;13.80;;;11.00;;
1024;SDS011;501;48.214;11.350;2023-03-18T00:45:46;17.70;;;11.70;;
1024;SDS011;501;48.214;11.350;2023-03-18T00:48:14;15.97;;;10.20;;
1024;SDS011;501;48.214;11.350;2023-03-18T00:50:41;13.87;;;10.30;;
1024;SDS011;501;48.214;11.350;2023-03-18T00:53:07;13.60;;;10.00;;
1024;SDS011;501;48.214;11.350;2023-03-18T00:55:33;17.70;;;9.70;;
1024;SDS011;501;48.214;11.350;2023-03-18T00:57:59;11.90;;;8.93;;
1024;SDS011;501;48.214;11.350;2023-03-18T01:00:24;10.43;;;9.40;;
1024;SDS011;501;48.214;11.350;2023-03-18T01:02:51;12.90;;;8.80;;
1024;SDS011;501;48.214;11.350;2023-03-18T01:05:17;11.80;;;8.20;;
1024;SDS011;501;48.214;11.350;2023-03-18T01:07:43;14.33;;;8.50;;
1024;SDS011;501;48.214;11.350;2023-03-18T01:10:10;14.20;;;10.20;;
1024;SDS011;501;48.214;11.350;2023-03-18T01:12:36;13.90;;;8.97;;
1024;SDS011;501;48.214;11.350;2023-03-18T01:15:02;10.33;;;8.73;;
1024;SDS011;501;48.214;11.350;2023-03-18T01:17:29;12.77;;;8.80;;
1024;SDS011;501;48.214;11.350;2023-03-18T01:19:55;11.27;;;8.70;;
1024;SDS011;501;48.214;11.350;2023-03-18T01:22:21;11.00;;;8.70;;
1024;SDS011;501;48.214;11.350;2023-03-18T01:24:47;14.47;;;9.67;;
1024;SDS011;501;48.214;11.350;2023-03-18T01:27:13;10.47;;;7.80;;
1024;SDS011;501;48.214;11.350;2023-03-18T01:29:39;11.33;;;8.30;;
1024;SDS011;501;48.214;11.350;2023-03-18T01:32:05;11.60;;;8.07;;
1024;SDS011;501;48.214;11.350;2023-03-18T01:34:31;12.90;;;8.87;;
1024;SDS011;501;48.214;11.350;2023-03-18T01:36:56;10.70;;;8.20;;
1024;SDS011;501;48.214;11.350;2023-03-18T01:39:22;9.10;;;7.73;;
1024;SDS011;501;48.214;11.350;2023-03-18T01:41:49;7.90;;;7.07;;
1024;SDS011;501;48.214;11.350;2023-03-18T01:44:16;12.83;;;8.30;;
1024;SDS011;501;48.214;11.350;2023-03-18T01:46:45;12.53;;;9.03;;
1024;SDS011;501;48.214;11.350;2023-03-18T01:49:26;8.70;;;7.80;;
1024;SDS011;501;48.214;11.350;2023-03-18T01:52:03;10.60;;;7.40;;
1024;SDS011;501;48.214;11.350;2023-03-18T01:54:43;9.17;;;8.27;;
1024;SDS011;501;48.214;11.350;2023-03-18T01:57:25;12.97;;;7.97;;
1024;SDS011;501;48.214;11.350;2023-03-18T01:59:52;20.03;;;9.07;;
1024;SDS011;501;48.214;11.350;2023-03-18T02:02:19;10.77;;;8.00;;
1024;SDS011;501;48.214;11.350;2023-03-18T02:04:49;9.87;;;8.10;;
1024;SDS011;501;48.214;11.350;2023-03-18T02:07:28;12.13;;;9.00;;
1024;SDS011;501;48.214;11.350;2023-03-18T02:09:58;11.30;;;7.40;;
1024;SDS011;501;48.214;11.350;2023-03-18T02:12:29;10.37;;;8.40;;
1024;SDS011;501;48.214;11.350;2023-03-18T02:14:58;11.80;;;8.03;;
1024;SDS011;501;48.214;11.350;2023-03-18T02:17:29;11.60;;;8.13;;
1024;SDS011;501;48.214;11.350;2023-03-18T02:22:49;10.77;;;8.20;;
1024;SDS011;501;48.214;11.350;2023-03-18T02:28:10;10.90;;;8.67;;
1024;SDS011;501;48.214;11.350;2023-03-18T02:30:51;12.50;;;8.63;;
1024;SDS011;501;48.214;11.350;2023-03-18T02:33:23;13.70;;;8.60;;
1024;SDS011;501;48.214;11.350;2023-03-18T02:36:04;10.23;;;7.80;;
1024;SDS011;501;48.214;11.350;2023-03-18T02:38:33;9.47;;;7.73;;
1024;SDS011;501;48.214;11.350;2023-03-18T02:40:59;11.37;;;8.27;;
1024;SDS011;501;48.214;11.350;2023-03-18T02:43:31;9.30;;;7.60;;
1024;SDS011;501;48.214;11.350;2023-03-18T02:46:01;12.50;;;8.57;;
1024;SDS011;501;48.214;11.350;2023-03-18T02:48:44;11.70;;;7.60;;
1024;SDS011;501;48.214;11.350;2023-03-18T02:51:11;9.03;;;8.13;;
1024;SDS011;501;48.214;11.350;2023-03-18T02:53:38;11.50;;;7.73;;
1024;SDS011;501;48.214;11.350;2023-03-18T02:56:05;12.60;;;8.70;;
1024;SDS011;501;48.214;11.350;2023-03-18T02:58:32;12.33;;;8.80;;
1024;SDS011;501;48.214;11.350;2023-03-18T03:00:58;13.30;;;7.90;;
1024;SDS011;501;48.214;11.350;2023-03-18T03:03:25;11.20;;;8.30;;
1024;SDS011;501;48.214;11.350;2023-03-18T03:05:51;9.40;;;8.20;;
1024;SDS011;501;48.214;11.350;2023-03-18T03:08:17;10.83;;;7.47;;
1024;SDS011;501;48.214;11.350;2023-03-18T03:10:43;8.30;;;7.40;;
1024;SDS011;501;48.214;11.350;2023-03-18T03:13:09;9.67;;;7.60;;
1024;SDS011;501;48.214;11.350;2023-03-18T03:15:36;9.30;;;7.53;;
1024;SDS011;501;48.214;11.350;2023-03-18T03:18:03;9.13;;;8.07;;
1024;SDS011;501;48.214;11.350;2023-03-18T03:20:30;8.43;;;6.70;;
1024;SDS011;501;48.214;11.350;2023-03-18T03:22:59;11.20;;;8.03;;
1024;SDS011;501;48.214;11.350;2023-03-18T03:25:26;10.70;;;8.40;;
1024;SDS011;501;48.214;11.350;2023-03-18T03:27:52;10.90;;;7.10;;
1024;SDS011;501;48.214;11.350;2023-03-18T03:30:18;7.30;;;6.20;;
1024;SDS011;501;48.214;11.350;2023-03-18T03:32:45;9.83;;;7.43;;
1024;SDS011;501;48.214;11.350;2023-03-18T03:35:12;11.33;;;7.93;;
1024;SDS011;501;48.214;11.350;2023-03-18T03:37:39;9.60;;;6.50;;
1024;SDS011;501;48.214;11.350;2023-03-18T03:40:06;8.27;;;7.00;;
1024;SDS011;501;48.214;11.350;2023-03-18T03:42:33;10.07;;;7.23;;
1024;SDS011;501;48.214;11.350;2023-03-18T03:44:58;8.87;;;6.93;;
1024;SDS011;501;48.214;11.350;2023-03-18T03:47:24;10.60;;;6.80;;
1024;SDS011;501;48.214;11.350;2023-03-18T03:49:50;8.87;;;7.17;;
1024;SDS011;501;48.214;11.350;2023-03-18T03:52:16;10.67;;;7.13;;
1024;SDS011;501;48.214;11.350;2023-03-18T03:54:44;9.53;;;6.70;;
1024;SDS011;501;48.214;11.350;2023-03-18T03:57:09;8.50;;;7.20;;
1024;SDS011;501;48.214;11.350;2023-03-18T03:59:35;9.17;;;7.10;;
1024;SDS011;501;48.214;11.350;2023-03-18T04:02:01;12.13;;;6.90;;
1024;SDS011;501;48.214;11.350;2023-03-18T04:04:28;10.37;;;7.50;;
1024;SDS011;501;48.214;11.350;2023-03-18T04:06:53;8.87;;;6.73;;
1024;SDS011;501;48.214;11.350;2023-03-18T04:09:20;8.57;;;6.20;;
1024;SDS011;501;48.214;11.350;2023-03-18T04:11:45;6.60;;;5.43;;
1024;SDS011;501;48.214;11.350;2023-03-18T04:14:11;9.53;;;7.17;;
1024;SDS011;501;48.214;11.350;2023-03-18T04:16:37;7.77;;;6.63;;
1024;SDS011;501;48.214;11.350;2023-03-18T04:19:03;9.20;;;6.10;;
1024;SDS011;501;48.214;11.350;2023-03-18T04:21:31;9.50;;;6.97;;
1024;SDS011;501;48.214;11.350;2023-03-18T04:23:57;8.13;;;6.10;;
1024;SDS011;501;48.214;11.350;2023-03-18T04:26:22;10.07;;;5.90;;
1024;SDS011;501;48.214;11.350;2023-03-18T04:28:48;6.73;;;6.00;;
1024;SDS011;501;48.214;11.350;2023-03-18T04:31:14;9.53;;;6.83;;
1024;SDS011;501;48.214;11.350;2023-03-18T04:33:40;10.50;;;6.10;;
1024;SDS011;501;48.214;11.350;2023-03-18T04:36:07;8.10;;;6.20;;
1024;SDS011;501;48.214;11.350;2023-03-18T04:38:33;7.10;;;5.37;;
1024;SDS011;501;48.214;11.350;2023-03-18T04:40:59;8.10;;;5.97;;
1024;SDS011;501;48.214;11.350;2023-03-18T04:43:25;5.93;;;5.23;;
1024;SDS011;501;48.214;11.350;2023-03-18T04:45:51;9.70;;;6.20;;
1024;SDS011;501;48.214;11.350;2023-03-18T04:48:17;7.80;;;5.50;;
1024;SDS011;501;48.214;11.350;2023-03-18T04:50:43;6.37;;;5.57;;
1024;SDS011;501;48.214;11.350;2023-03-18T04:53:09;11.23;;;5.63;;
1024;SDS011;501;48.214;11.350;2023-03-18T04:55:35;6.20;;;4.87;;
1024;SDS011;501;48.214;11.350;2023-03-18T04:58:01;10.50;;;5.57;;
1024;SDS011;501;48.214;11.350;2023-03-18T05:00:26;6.10;;;5.33;;
1024;SDS011;501;48.214;11.350;2023-03-18T05:02:52;6.37;;;5.10;;
1024;SDS011;501;48.214;11.350;2023-03-18T05:05:18;11.10;;;5.20;;
1024;SDS011;501;48.214;11.350;2023-03-18T05:07:43;7.10;;;5.40;;
1024;SDS011;501;48.214;11.350;2023-03-18T05:10:09;8.03;;;6.10;;
1024;SDS011;501;48.214;11.350;2023-03-18T05:12:35;9.13;;;6.10;;
1024;SDS011;501;48.214;11.350;2023-03-18T05:15:03;6.90;;;5.57;;
1024;SDS011;501;48.214;11.350;2023-03-18T05:17:29;6.53;;;5.40;;
1024;SDS011;501;48.214;11.350;2023-03-18T05:19:55;6.53;;;5.80;;
1024;SDS011;501;48.214;11.350;2023-03-18T05:22:21;10.50;;;6.07;;
1024;SDS011;501;48.214;11.350;2023-03-18T05:24:47;9.17;;;6.80;;
1024;SDS011;501;48.214;11.350;2023-03-18T05:27:13;7.10;;;5.53;;
1024;SDS011;501;48.214;11.350;2023-03-18T05:29:41;9.50;;;6.27;;
1024;SDS011;501;48.214;11.350;2023-03-18T05:32:07;6.90;;;5.90;;
1024;SDS011;501;48.214;11.350;2023-03-18T05:34:34;6.10;;;5.50;;
1024;SDS011;501;48.214;11.350;2023-03-18T05:37:01;8.57;;;5.30;;
1024;SDS011;501;48.214;11.350;2023-03-18T05:39:28;11.10;;;6.73;;
1024;SDS011;501;48.214;11.350;2023-03-18T05:41:55;5.70;;;4.47;;
1024;SDS011;501;48.214;11.350;2023-03-18T05:44:21;5.33;;;4.83;;
1024;SDS011;501;48.214;11.350;2023-03-18T05:46:47;5.50;;;4.93;;
1024;SDS011;501;48.214;11.350;2023-03-18T05:49:14;6.57;;;5.90;;
1024;SDS011;501;48.214;11.350;2023-03-18T05:51:40;9.33;;;6.03;;
1024;SDS011;501;48.214;11.350;2023-03-18T05:54:06;8.73;;;6.13;;
1024;SDS011;501;48.214;11.350;2023-03-18T05:56:33;9.40;;;6.07;;
1024;SDS011;501;48.214;11.350;2023-03-18T05:58:58;10.53;;;6.90;;
1024;SDS011;501;48.214;11.350;2023-03-18T06:01:24;9.70;;;6.33;;
1024;SDS011;501;48.214;11.350;2023-03-18T06:03:50;11.77;;;7.60;;
1024;SDS011;501;48.214;11.350;2023-03-18T06:06:17;8.30;;;6.47;;
1024;SDS011;501;48.214;11.350;2023-03-18T06:08:43;11.70;;;6.70;;
1024;SDS011;501;48.214;11.350;2023-03-18T06:11:10;7.73;;;5.77;;
1024;SDS011;501;48.214;11.350;2023-03-18T06:13:36;8.17;;;6.57;;
1024;SDS011;501;48.214;11.350;2023-03-18T06:16:03;11.73;;;6.03;;
1024;SDS011;501;48.214;11.350;2023-03-18T06:18:28;6.40;;;5.80;;
1024;SDS011;501;48.214;11.350;2023-03-18T06:20:54;7.80;;;5.60;;
1024;SDS011;501;48.214;11.350;2023-03-18T06:23:21;7.20;;;5.73;;
1024;SDS011;501;48.214;11.350;2023-03-18T06:25:47;8.90;;;5.13;;
1024;SDS011;501;48.214;11.350;2023-03-18T06:28:13;7.93;;;6.17;;
1024;SDS011;501;48.214;11.350;2023-03-18T06:30:39;6.43;;;5.23;;
1024;SDS011;501;48.214;11.350;2023-03-18T06:33:05;8.33;;;5.57;;
1024;SDS011;501;48.214;11.350;2023-03-18T06:35:31;8.83;;;5.57;;
1024;SDS011;501;48.214;11.350;2023-03-18T06:37:56;7.37;;;5.60;;
1024;SDS011;501;48.214;11.350;2023-03-18T06:40:22;7.40;;;5.20;;
1024;SDS011;501;48.214;11.350;2023-03-18T06:42:48;6.93;;;5.70;;
1024;SDS011;501;48.214;11.350;2023-03-18T06:45:15;7.80;;;6.40;;
1024;SDS011;501;48.214;11.350;2023-03-18T06:47:41;8.43;;;6.00;;
1024;SDS011;501;48.214;11.350;2023-03-18T06:50:08;15.10;;;6.63;;
1024;SDS011;501;48.214;11.350;2023-03-18T06:52:34;8.40;;;6.07;;
1024;SDS011;501;48.214;11.350;2023-03-18T06:55:01;6.37;;;5.40;;
1024;SDS011;501;48.214;11.350;2023-03-18T06:57:27;11.70;;;7.43;;
1024;SDS011;501;48.214;11.350;2023-03-18T06:59:53;9.53;;;7.23;;
1024;SDS011;501;48.214;11.350;2023-03-18T07:02:19;7.83;;;6.87;;
1024;SDS011;501;48.214;11.350;2023-03-18T07:04:47;10.83;;;7.17;;
1024;SDS011;501;48.214;11.350;2023-03-18T07:07:13;9.23;;;7.03;;
1024;SDS011;501;48.214;11.350;2023-03-18T07:09:39;13.03;;;8.30;;
1024;SDS011;501;48.214;11.350;2023-03-18T07:12:05;9.53;;;7.63;;
1024;SDS011;501;48.214;11.350;2023-03-18T07:14:31;8.17;;;7.27;;
1024;SDS011;501;48.214;11.350;2023-03-18T07:16:57;8.87;;;7.20;;
1024;SDS011;501;48.214;11.350;2023-03-18T07:19:22;11.00;;;7.70;;
1024;SDS011;501;48.214;11.350;2023-03-18T07:21:49;11.07;;;8.20;;
1024;SDS011;501;48.214;11.350;2023-03-18T07:24:15;10.27;;;7.00;;
1024;SDS011;501;48.214;11.350;2023-03-18T07:26:41;9.47;;;6.83;;
1024;SDS011;501;48.214;11.350;2023-03-18T07:29:07;9.57;;;7.37;;
1024;SDS011;501;48.214;11.350;2023-03-18T07:31:33;7.50;;;6.53;;
1024;SDS011;501;48.214;11.350;2023-03-18T07:33:59;8.87;;;7.67;;
1024;SDS011;501;48.214;11.350;2023-03-18T07:36:24;9.40;;;7.13;;
1024;SDS011;501;48.214;11.350;2023-03-18T07:38:52;9.37;;;6.93;;
1024;SDS011;501;48.214;11.350;2023-03-18T07:41:18;7.20;;;6.30;;
1024;SDS011;501;48.214;11.350;2023-03-18T07:43:43;8.63;;;6.40;;
1024;SDS011;501;48.214;11.350;2023-03-18T07:46:09;7.23;;;5.37;;
1024;SDS011;501;48.214;11.350;2023-03-18T07:48:34;8.57;;;5.90;;
1024;SDS011;501;48.214;11.350;2023-03-18T07:51:00;8.60;;;6.10;;
1024;SDS011;501;48.214;11.350;2023-03-18T07:53:26;6.70;;;5.87;;
1024;SDS011;501;48.214;11.350;2023-03-18T07:55:52;8.20;;;6.97;;
1024;SDS011;501;48.214;11.350;2023-03-18T07:58:18;9.60;;;6.47;;
1024;SDS011;501;48.214;11.350;2023-03-18T08:00:44;11.90;;;6.80;;
1024;SDS011;501;48.214;11.350;2023-03-18T08:03:11;8.20;;;7.13;;
1024;SDS011;501;48.214;11.350;2023-03-18T08:05:38;7.60;;;5.47;;
1024;SDS011;501;48.214;11.350;2023-03-18T08:08:05;10.50;;;6.37;;
1024;SDS011;501;48.214;11.350;2023-03-18T08:10:31;7.97;;;6.57;;
1024;SDS011;501;48.214;11.350;2023-03-18T08:12:56;8.10;;;6.73;;
1024;SDS011;501;48.214;11.350;2023-03-18T08:15:22;9.03;;;6.50;;
1024;SDS011;501;48.214;11.350;2023-03-18T08:17:49;8.13;;;7.17;;
1024;SDS011;501;48.214;11.350;2023-03-18T08:20:16;9.90;;;7.00;;
1024;SDS011;501;48.214;11.350;2023-03-18T08:22:42;10.50;;;7.50;;
1024;SDS011;501;48.214;11.350;2023-03-18T08:25:09;9.37;;;7.97;;
1024;SDS011;501;48.214;11.350;2023-03-18T08:27:36;10.70;;;7.40;;
1024;SDS011;501;48.214;11.350;2023-03-18T08:30:01;11.80;;;8.47;;
1024;SDS011;501;48.214;11.350;2023-03-18T08:32:27;10.20;;;7.93;;
1024;SDS011;501;48.214;11.350;2023-03-18T08:34:54;9.07;;;7.73;;
1024;SDS011;501;48.214;11.350;2023-03-18T08:37:20;8.93;;;7.43;;
1024;SDS011;501;48.214;11.350;2023-03-18T08:39:46;11.93;;;7.40;;
1024;SDS011;501;48.214;11.350;2023-03-18T08:42:12;9.73;;;7.00;;
1024;SDS011;501;48.214;11.350;2023-03-18T08:44:38;8.23;;;6.23;;
1024;SDS011;501;48.214;11.350;2023-03-18T08:47:04;8.23;;;6.93;;
1024;SDS011;501;48.214;11.350;2023-03-18T08:49:30;7.20;;;6.50;;
1024;SDS011;501;48.214;11.350;2023-03-18T08:51:56;7.47;;;5.77;;
1024;SDS011;501;48.214;11.350;2023-03-18T08:54:21;11.57;;;6.70;;
1024;SDS011;501;48.214;11.350;2023-03-18T08:56:47;7.20;;;5.60;;
1024;SDS011;501;48.214;11.350;2023-03-18T08:59:13;7.10;;;5.10;;
1024;SDS011;501;48.214;11.350;2023-03-18T09:01:39;6.80;;;4.60;;
1024;SDS011;501;48.214;11.350;2023-03-18T09:04:05;5.17;;;4.30;;
1024;SDS011;501;48.214;11.350;2023-03-18T09:06:31;6.10;;;4.40;;
1024;SDS011;501;48.214;11.350;2023-03-18T09:08:56;6.97;;;4.90;;
1024;SDS011;501;48.214;11.350;2023-03-18T09:11:22;7.30;;;4.67;;
1024;SDS011;501;48.214;11.350;2023-03-18T09:13:48;6.13;;;4.87;;
1024;SDS011;501;48.214;11.350;2023-03-18T09:16:14;6.07;;;4.53;;
1024;SDS011;501;48.214;11.350;2023-03-18T09:18:40;4.20;;;3.30;;
1024;SDS011;501;48.214;11.350;2023-03-18T09:21:06;5.30;;;3.03;;
1024;SDS011;501;48.214;11.350;2023-03-18T09:23:32;3.40;;;2.50;;
1024;SDS011;501;48.214;11.350;2023-03-18T09:25:58;2.60;;;2.40;;
1024;SDS011;501;48.214;11.350;2023-03-18T09:28:25;5.77;;;2.90;;
1024;SDS011;501;48.214;11.350;2023-03-18T09:30:51;7.60;;;2.37;;
1024;SDS011;501;48.214;11.350;2023-03-18T09:33:17;3.30;;;2.00;;
1024;SDS011;501;48.214;11.350;2023-03-18T09:35:42;2.33;;;2.13;;
1024;SDS011;501;48.214;11.350;2023-03-18T09:38:15;4.93;;;3.13;;
1024;SDS011;501;48.214;11.350;2023-03-18T09:40:49;3.50;;;2.30;;
1024;SDS011;501;48.214;11.350;2023-03-18T09:46:14;3.27;;;2.63;;
1024;SDS011;501;48.214;11.350;2023-03-18T09:53:57;3.63;;;2.20;;
1024;SDS011;501;48.214;11.350;2023-03-18T09:56:29;3.00;;;2.00;;
1024;SDS011;501;48.214;11.350;2023-03-18T09:59:03;1.80;;;1.70;;
1024;SDS011;501;48.214;11.350;2023-03-18T10:01:31;6.80;;;1.57;;
1024;SDS011;501;48.214;11.350;2023-03-18T10:04:02;1.93;;;1.70;;
1024;SDS011;501;48.214;11.350;2023-03-18T10:06:29;3.03;;;1.63;;
1024;SDS011;501;48.214;11.350;2023-03-18T10:11:47;2.10;;;1.47;;
1024;SDS011;501;48.214;11.350;2023-03-18T10:17:11;3.87;;;1.60;;
1024;SDS011;501;48.214;11.350;2023-03-18T10:20:00;3.30;;;1.90;;
1024;SDS011;501;48.214;11.350;2023-03-18T10:22:42;3.27;;;2.27;;
1024;SDS011;501;48.214;11.350;2023-03-18T10:25:42;5.13;;;1.80;;
1024;SDS011;501;48.214;11.350;2023-03-18T10:28:21;3.70;;;1.80;;
1024;SDS011;501;48.214;11.350;2023-03-18T10:31:31;2.10;;;1.40;;
1024;SDS011;501;48.214;11.350;2023-03-18T10:37:56;2.13;;;1.80;;
1024;SDS011;501;48.214;11.350;2023-03-18T10:40:26;3.43;;;1.83;;
1024;SDS011;501;48.214;11.350;2023-03-18T10:43:05;1.73;;;1.40;;
1024;SDS011;501;48.214;11.350;2023-03-18T10:45:39;1.63;;;1.53;;
1024;SDS011;501;48.214;11.350;2023-03-18T10:48:10;5.43;;;2.10;;
1024;SDS011;501;48.214;11.350;2023-03-18T10:50:42;2.20;;;1.97;;
1024;SDS011;501;48.214;11.350;2023-03-18T10:54:02;1.90;;;1.63;;
1024;SDS011;501;48.214;11.350;2023-03-18T10:56:22;1.50;;;1.37;;
1024;SDS011;501;48.214;11.350;2023-03-18T10:58:49;2.67;;;1.60;;
1024;SDS011;501;48.214;11.350;2023-03-18T11:01:16;3.23;;;1.97;;
1024;SDS011;501;48.214;11.350;2023-03-18T11:03:49;3.50;;;1.80;;
1024;SDS011;501;48.214;11.350;2023-03-18T11:06:20;3.30;;;1.77;;
1024;SDS011;501;48.214;11.350;2023-03-18T11:08:58;4.33;;;1.90;;
1024;SDS011;501;48.214;11.350;2023-03-18T11:11:37;2.93;;;1.50;;
1024;SDS011;501;48.214;11.350;2023-03-18T11:14:05;4.57;;;2.40;;
1024;SDS011;501;48.214;11.350;2023-03-18T11:16:44;2.20;;;1.97;;
1024;SDS011;501;48.214;11.350;2023-03-18T11:19:24;3.17;;;2.20;;
1024;SDS011;501;48.214;11.350;2023-03-18T11:22:00;4.10;;;2.20;;
1024;SDS011;501;48.214;11.350;2023-03-18T11:24:59;5.40;;;2.10;;
1024;SDS011;501;48.214;11.350;2023-03-18T11:27:27;3.07;;;2.20;;
1024;SDS011;501;48.214;11.350;2023-03-18T11:30:03;2.70;;;2.37;;
1024;SDS011;501;48.214;11.350;2023-03-18T11:35:21;3.17;;;1.90;;
1024;SDS011;501;48.214;11.350;2023-03-18T11:37:49;2.23;;;1.83;;
1024;SDS011;501;48.214;11.350;2023-03-18T11:40:16;2.40;;;2.20;;
1024;SDS011;501;48.214;11.350;2023-03-18T11:42:54;5.80;;;2.30;;
1024;SDS011;501;48.214;11.350;2023-03-18T11:45:37;2.43;;;2.23;;
1024;SDS011;501;48.214;11.350;2023-03-18T11:48:13;4.20;;;2.43;;
1024;SDS011;501;48.214;11.350;2023-03-18T11:51:31;3.43;;;2.30;;
1024;SDS011;501;48.214;11.350;2023-03-18T11:53:41;4.67;;;3.30;;
1024;SDS011;501;48.214;11.350;2023-03-18T12:04:39;2.53;;;2.20;;
1024;SDS011;501;48.214;11.350;2023-03-18T12:07:56;3.17;;;2.60;;
1024;SDS011;501;48.214;11.350;2023-03-18T12:13:02;2.80;;;1.90;;
1024;SDS011;501;48.214;11.350;2023-03-18T12:20:54;5.80;;;3.60;;
1024;SDS011;501;48.214;11.350;2023-03-18T12:26:16;7.77;;;2.97;;
1024;SDS011;501;48.214;11.350;2023-03-18T12:34:18;2.90;;;2.33;;
1024;SDS011;501;48.214;11.350;2023-03-18T12:42:17;3.10;;;2.30;;
1024;SDS011;501;48.214;11.350;2023-03-18T12:44:49;2.90;;;2.60;;
1024;SDS011;501;48.214;11.350;2023-03-18T12:47:32;3.30;;;2.20;;
1024;SDS011;501;48.214;11.350;2023-03-18T12:50:19;4.20;;;2.70;;
1024;SDS011;501;48.214;11.350;2023-03-18T12:53:17;3.40;;;3.13;;
1024;SDS011;501;48.214;11.350;2023-03-18T12:55:52;3.23;;;2.53;;
1024;SDS011;501;48.214;11.350;2023-03-18T13:01:34;5.13;;;3.23;;
1024;SDS011;501;48.214;11.350;2023-03-18T13:04:17;3.43;;;2.70;;
1024;SDS011;501;48.214;11.350;2023-03-18T13:07:02;3.77;;;3.10;;
1024;SDS011;501;48.214;11.350;2023-03-18T13:09:44;4.67;;;2.80;;
1024;SDS011;501;48.214;11.350;2023-03-18T13:12:16;4.87;;;2.93;;
1024;SDS011;501;48.214;11.350;2023-03-18T13:17:42;4.80;;;2.63;;
1024;SDS011;501;48.214;11.350;2023-03-18T13:42:30;5.20;;;2.83;;
1024;SDS011;501;48.214;11.350;2023-03-18T13:47:53;3.93;;;2.90;;
1024;SDS011;501;48.214;11.350;2023-03-18T13:50:47;4.60;;;2.87;;
1024;SDS011;501;48.214;11.350;2023-03-18T13:55:59;4.10;;;2.50;;
1024;SDS011;501;48.214;11.350;2023-03-18T13:58:44;7.73;;;3.30;;
1024;SDS011;501;48.214;11.350;2023-03-18T14:07:16;7.60;;;3.63;;
1024;SDS011;501;48.214;11.350;2023-03-18T14:14:54;6.63;;;2.73;;
1024;SDS011;501;48.214;11.350;2023-03-18T14:22:50;3.20;;;2.80;;
1024;SDS011;501;48.214;11.350;2023-03-18T14:35:29;6.67;;;4.50;;
1024;SDS011;501;48.214;11.350;2023-03-18T14:37:59;6.30;;;3.67;;
1024;SDS011;501;48.214;11.350;2023-03-18T14:40:29;5.47;;;3.80;;
1024;SDS011;501;48.214;11.350;2023-03-18T14:43:00;7.43;;;3.83;;
1024;SDS011;501;48.214;11.350;2023-03-18T14:45:49;4.43;;;4.03;;
1024;SDS011;501;48.214;11.350;2023-03-18T14:48:18;5.13;;;4.10;;
1024;SDS011;501;48.214;11.350;2023-03-18T14:50:51;6.70;;;4.10;;
1024;SDS011;501;48.214;11.350;2023-03-18T14:56:15;4.70;;;3.73;;
1024;SDS011;501;48.214;11.350;2023-03-18T14:58:53;4.70;;;4.10;;
1024;SDS011;501;48.214;11.350;2023-03-18T15:01:24;6.80;;;4.50;;
1024;SDS011;501;48.214;11.350;2023-03-18T15:04:00;3.60;;;3.30;;
1024;SDS011;501;48.214;11.350;2023-03-18T15:06:27;3.57;;;3.20;;
1024;SDS011;501;48.214;11.350;2023-03-18T15:09:07;6.67;;;4.67;;
1024;SDS011;501;48.214;11.350;2023-03-18T15:11:39;4.10;;;3.00;;
1024;SDS011;501;48.214;11.350;2023-03-18T15:14:11;5.80;;;3.70;;
1024;SDS011;501;48.214;11.350;2023-03-18T15:16:51;4.40;;;3.90;;
1024;SDS011;501;48.214;11.350;2023-03-18T15:19:19;5.20;;;4.40;;
1024;SDS011;501;48.214;11.350;2023-03-18T15:21:45;5.90;;;3.83;;
1024;SDS011;501;48.214;11.350;2023-03-18T15:24:12;3.87;;;3.20;;
1024;SDS011;501;48.214;11.350;2023-03-18T15:26:43;5.50;;;3.83;;
1024;SDS011;501;48.214;11.350;2023-03-18T15:29:28;3.60;;;3.17;;
1024;SDS011;501;48.214;11.350;2023-03-18T15:34:49;5.33;;;4.00;;
1024;SDS011;501;48.214;11.350;2023-03-18T15:39:55;5.90;;;4.17;;
1024;SDS011;501;48.214;11.350;2023-03-18T15:42:23;4.90;;;3.87;;
1024;SDS011;501;48.214;11.350;2023-03-18T15:44:58;4.57;;;3.73;;
1024;SDS011;501;48.214;11.350;2023-03-18T15:47:30;4.80;;;3.10;;
1024;SDS011;501;48.214;11.350;2023-03-18T15:49:57;5.93;;;4.73;;
1024;SDS011;501;48.214;11.350;2023-03-18T15:52:26;7.73;;;4.10;;
1024;SDS011;501;48.214;11.350;2023-03-18T15:54:58;4.23;;;3.63;;
1024;SDS011;501;48.214;11.350;2023-03-18T15:57:28;10.13;;;4.60;;
1024;SDS011;501;48.214;11.350;2023-03-18T15:59:58;7.63;;;5.10;;
1024;SDS011;501;48.214;11.350;2023-03-18T16:02:24;6.63;;;4.47;;
1024;SDS011;501;48.214;11.350;2023-03-18T16:04:51;5.13;;;4.53;;
1024;SDS011;501;48.214;11.350;2023-03-18T16:07:18;4.90;;;3.97;;
1024;SDS011;501;48.214;11.350;2023-03-18T16:09:52;6.40;;;4.47;;
1024;SDS011;501;48.214;11.350;2023-03-18T16:12:19;4.97;;;3.83;;
1024;SDS011;501;48.214;11.350;2023-03-18T16:14:48;5.03;;;3.83;;
1024;SDS011;501;48.214;11.350;2023-03-18T16:17:16;7.37;;;4.53;;
1024;SDS011;501;48.214;11.350;2023-03-18T16:19:44;4.10;;;3.70;;
1024;SDS011;501;48.214;11.350;2023-03-18T16:22:11;4.73;;;4.13;;
1024;SDS011;501;48.214;11.350;2023-03-18T16:24:38;5.70;;;4.47;;
1024;SDS011;501;48.214;11.350;2023-03-18T16:27:05;5.00;;;3.87;;
1024;SDS011;501;48.214;11.350;2023-03-18T16:29:54;14.50;;;4.40;;
1024;SDS011;501;48.214;11.350;2023-03-18T16:32:20;4.53;;;3.73;;
1024;SDS011;501;48.214;11.350;2023-03-18T16:34:46;6.17;;;3.90;;
1024;SDS011;501;48.214;11.350;2023-03-18T16:37:17;7.23;;;3.80;;
1024;SDS011;501;48.214;11.350;2023-03-18T16:39:46;6.90;;;4.30;;
1024;SDS011;501;48.214;11.350;2023-03-18T16:42:12;4.13;;;3.70;;
1024;SDS011;501;48.214;11.350;2023-03-18T16:44:38;4.40;;;4.00;;
1024;SDS011;501;48.214;11.350;2023-03-18T16:47:04;5.63;;;4.30;;
1024;SDS011;501;48.214;11.350;2023-03-18T16:49:33;6.00;;;4.23;;
1024;SDS011;501;48.214;11.350;2023-03-18T16:52:01;9.60;;;4.80;;
1024;SDS011;501;48.214;11.350;2023-03-18T16:54:28;5.70;;;4.70;;
1024;SDS011;501;48.214;11.350;2023-03-18T16:56:57;7.77;;;4.23;;
1024;SDS011;501;48.214;11.350;2023-03-18T16:59:28;5.00;;;4.50;;
1024;SDS011;501;48.214;11.350;2023-03-18T17:01:59;6.33;;;5.17;;
1024;SDS011;501;48.214;11.350;2023-03-18T17:04:31;5.70;;;4.37;;
1024;SDS011;501;48.214;11.350;2023-03-18T17:06:59;8.80;;;5.47;;
1024;SDS011;501;48.214;11.350;2023-03-18T17:09:27;8.40;;;4.67;;
1024;SDS011;501;48.214;11.350;2023-03-18T17:11:57;6.07;;;4.30;;
1024;SDS011;501;48.214;11.350;2023-03-18T17:14:27;8.73;;;5.93;;
1024;SDS011;501;48.214;11.350;2023-03-18T17:16:59;8.90;;;5.67;;
1024;SDS011;501;48.214;11.350;2023-03-18T17:19:27;8.63;;;5.47;;
1024;SDS011;501;48.214;11.350;2023-03-18T17:21:53;9.10;;;6.67;;
1024;SDS011;501;48.214;11.350;2023-03-18T17:24:19;11.77;;;6.80;;
1024;SDS011;501;48.214;11.350;2023-03-18T17:26:46;7.40;;;6.40;;
1024;SDS011;501;48.214;11.350;2023-03-18T17:29:23;8.90;;;5.33;;
1024;SDS011;501;48.214;11.350;2023-03-18T17:31:51;9.40;;;5.87;;